UPSVAC Airport Information Service

Little Rock Clinton National Airport

ICAO: KLIT Country: United States
Latitude: 34.7294 Longitude: -92.2243
Latest Arrival : UPS2909 (KSDF-KLIT) Latest Departure : UPS822 (KLIT-KSDF)


WX CaptureLIVE
Data provided by noaa.gov | Fetched at 14:59:01

METAR : KLIT 141407Z 05010KT 3SM RA BR BKN007 BKN055 OVC090 11/09 A3011

TAF : KLIT 141146Z 1412/1512 02012KT P6SM -SHRA VCTS SCT020CB OVC040 TEMPO 1412/1414 VRB05G20KT 3SM -TSRA BR BKN030CB FM141400 02009G16KT 6SM -SHRA BR VCTS SCT012 OVC020CB FM141800 03009KT P6SM OVC020 FM150400 02006KT P6SM OVC040


Runway Data for KLIT
Data provided by openaviationdata.com

Runway ID Mag Var Hdg Length Elevation Surface ILS Freq ILS Id ILS Slope
04L 2 44° 8274 ft 262 ft Concrete 110.3 ILIT 3
04R 2 44° 7201 ft 262 ft Concrete 111.3 ICNL 3
18 2 179° 5133 ft 262 ft Asphalt -- -- --
22L 2 224° 7201 ft 262 ft Concrete 110.7 IBWY 3
22R 2 224° 8274 ft 262 ft Concrete 110.3 IAAY 3
36 2 359° 5133 ft 262 ft Asphalt -- -- --

Little Rock Clinton National Airport, United States
Use only for reference purposes



Not for navigational purposes.